Time;durP1;ratioP1;P1;durP2;ratioP2;P2;SDS_P1;SDS_P2;PMS_P1;PMS_P2;Temp;Humidity;BMP_temperature;BMP_pressure;BME280_temperature;BME280_humidity;BME280_pressure;Samples;Min_cycle;Max_cycle;Signal;HPM_P1;HPM_P2
2022/05/16 00:01:03;;;;;;;7.30;2.70;;;;;;;19.47;46.94;100020.59;4440247;32;34387;-89
2022/05/16 00:03:32;;;;;;;6.47;2.85;;;;;;;19.38;45.82;100025.75;4452759;32;34064;-90
2022/05/16 00:06:00;;;;;;;5.90;2.62;;;;;;;19.44;44.93;100029.47;4440127;32;32965;-89
2022/05/16 00:08:28;;;;;;;7.10;2.87;;;;;;;19.16;45.26;100025.75;4440196;32;33609;-89
2022/05/16 00:10:59;;;;;;;10.93;2.60;;;;;;;19.20;44.85;100021.34;4427359;32;34721;-90
2022/05/16 00:13:27;;;;;;;7.07;2.53;;;;;;;19.10;45.08;100026.75;4427282;32;32347;-90
2022/05/16 00:15:55;;;;;;;5.50;2.70;;;;;;;19.14;44.85;100025.16;4442310;32;33817;-88
2022/05/16 00:18:24;;;;;;;6.90;3.10;;;;;;;19.14;44.84;100027.94;4442509;32;33782;-89
2022/05/16 00:20:54;;;;;;;6.65;3.00;;;;;;;19.07;45.01;100027.28;4429755;32;32985;-89
2022/05/16 00:23:22;;;;;;;11.12;3.35;;;;;;;19.13;44.97;100023.47;4442699;32;34813;-90
2022/05/16 00:25:50;;;;;;;5.93;2.85;;;;;;;19.10;44.67;100023.97;4431813;32;33077;-89
2022/05/16 00:28:19;;;;;;;6.90;2.92;;;;;;;18.82;45.19;100019.44;4445026;32;33709;-90
2022/05/16 00:30:49;;;;;;;7.87;2.30;;;;;;;18.97;45.07;100024.34;4444268;32;35272;-90
2022/05/16 00:33:20;;;;;;;5.53;2.95;;;;;;;18.82;45.32;100019.44;4431627;32;32387;-89
2022/05/16 00:35:48;;;;;;;6.62;3.10;;;;;;;18.95;44.98;100027.37;4431583;32;32642;-90
2022/05/16 00:38:18;;;;;;;6.25;2.60;;;;;;;19.00;45.00;100021.91;4444269;32;33998;-90
2022/05/16 00:40:46;;;;;;;6.57;2.92;;;;;;;19.01;45.00;100022.75;4431579;32;32906;-90
2022/05/16 00:43:22;;;;;;;6.55;2.92;;;;;;;18.89;45.31;100022.00;4444440;32;33166;-90
2022/05/16 00:45:55;;;;;;;6.87;3.00;;;;;;;18.89;45.25;100033.13;4444611;32;31911;-90
2022/05/16 00:48:22;;;;;;;8.23;3.10;;;;;;;18.96;45.21;100031.00;4444422;32;33800;-89
2022/05/16 00:50:54;;;;;;;6.93;2.95;;;;;;;18.72;45.87;100028.44;4444392;32;34376;-89
2022/05/16 00:53:22;;;;;;;8.27;2.80;;;;;;;18.80;45.55;100034.69;4444501;32;33561;-90
2022/05/16 00:55:53;;;;;;;6.93;2.78;;;;;;;18.71;45.85;100035.09;4431631;32;32984;-90
2022/05/16 00:58:22;;;;;;;5.28;2.95;;;;;;;18.78;45.64;100034.09;4444269;32;32265;-89
2022/05/16 01:00:53;;;;;;;4.90;2.55;;;;;;;18.72;45.78;100035.94;4444747;32;34635;-90
2022/05/16 01:06:13;;;;;;;6.32;2.83;;;;;;;18.67;45.75;100033.94;4446267;32;33032;-89
2022/05/16 01:08:44;;;;;;;6.87;2.70;;;;;;;18.52;46.21;100036.44;4431454;32;32147;-89
2022/05/16 01:11:13;;;;;;;6.78;2.37;;;;;;;18.71;45.76;100039.81;4431706;32;32981;-90
2022/05/16 01:13:42;;;;;;;5.97;2.65;;;;;;;18.55;45.85;100044.25;4431809;32;33538;-90
2022/05/16 01:16:09;;;;;;;6.60;2.95;;;;;;;18.45;45.89;100052.41;4431208;32;31924;-90
2022/05/16 01:18:41;;;;;;;5.97;2.87;;;;;;;18.31;46.56;100049.12;4444219;32;33157;-90
2022/05/16 01:21:39;;;;;;;7.62;2.87;;;;;;;18.28;46.51;100046.00;4444525;32;34537;-88
2022/05/16 01:24:10;;;;;;;5.37;2.70;;;;;;;18.28;46.38;100041.28;4443943;32;33501;-90
2022/05/16 01:26:41;;;;;;;5.35;2.50;;;;;;;18.36;46.13;100045.59;4444039;32;33114;-90
2022/05/16 01:29:09;;;;;;;5.12;2.78;;;;;;;18.25;46.05;100046.50;4431594;32;32369;-90
2022/05/16 01:31:38;;;;;;;7.35;2.70;;;;;;;18.20;46.53;100049.22;4444412;32;35093;-89
2022/05/16 01:34:06;;;;;;;5.87;2.87;;;;;;;18.13;46.77;100048.53;4444285;32;33949;-90
2022/05/16 01:36:34;;;;;;;6.00;2.92;;;;;;;18.24;46.42;100044.81;4431385;32;32915;-90
2022/05/16 01:39:02;;;;;;;8.27;2.83;;;;;;;18.22;46.10;100053.41;4443949;32;33797;-90
2022/05/16 01:41:31;;;;;;;5.90;2.87;;;;;;;18.17;46.17;100052.50;4444270;32;34100;-92
2022/05/16 01:44:02;;;;;;;8.88;2.90;;;;;;;18.17;46.15;100052.50;4444242;32;33806;-90
2022/05/16 01:46:34;;;;;;;6.78;2.87;;;;;;;18.34;45.47;100048.62;4431085;32;32951;-90
2022/05/16 01:49:04;;;;;;;6.55;3.17;;;;;;;18.38;45.39;100060.06;4443791;32;32219;-89
2022/05/16 01:51:31;;;;;;;6.95;3.20;;;;;;;18.44;45.39;100057.13;4431033;32;32754;-91
2022/05/16 01:54:03;;;;;;;6.97;2.90;;;;;;;18.42;45.57;100052.94;4443880;32;34140;-90
2022/05/16 01:56:32;;;;;;;9.77;2.97;;;;;;;18.61;45.11;100050.78;4456813;32;33455;-90
2022/05/16 01:59:03;;;;;;;4.97;2.67;;;;;;;18.50;45.77;100049.72;4431102;32;33831;-90
2022/05/16 02:01:32;;;;;;;7.20;3.03;;;;;;;18.57;45.54;100053.19;4444015;32;35152;-92
2022/05/16 02:04:00;;;;;;;7.00;2.83;;;;;;;18.66;45.32;100060.03;4431155;32;32479;-89
2022/05/16 02:06:29;;;;;;;5.93;2.62;;;;;;;18.53;45.59;100060.34;4443595;32;32213;-90
2022/05/16 02:08:57;;;;;;;8.60;3.62;;;;;;;18.61;45.75;100061.91;4430690;32;32357;-89
2022/05/16 02:11:28;;;;;;;9.35;3.08;;;;;;;18.63;46.05;100071.66;4431469;32;33685;-88
2022/05/16 02:13:58;;;;;;;9.70;3.42;;;;;;;18.57;46.14;100067.09;4432064;32;32616;-88
2022/05/16 02:16:29;;;;;;;7.90;2.85;;;;;;;18.53;46.42;100065.91;4429449;32;31241;-88
2022/05/16 02:18:57;;;;;;;9.60;3.53;;;;;;;18.73;46.19;100066.28;4429456;32;32205;-90
2022/05/16 02:27:07;;;;;;;8.13;3.12;;;;;;;18.81;45.43;100069.75;4443287;32;33500;-89
2022/05/16 02:29:35;;;;;;;6.65;3.10;;;;;;;18.61;45.64;100061.91;4441173;32;33657;-89
2022/05/16 02:32:04;;;;;;;7.50;3.30;;;;;;;18.62;45.78;100066.38;4440980;32;34493;-90
2022/05/16 02:34:32;;;;;;;8.43;3.45;;;;;;;18.64;46.15;100078.06;4440849;32;32521;-92
2022/05/16 02:37:02;;;;;;;5.65;3.17;;;;;;;18.55;46.54;100074.84;4440829;32;33670;-90
2022/05/16 02:39:33;;;;;;;6.18;2.95;;;;;;;18.50;46.77;100069.19;4427999;32;32438;-90
2022/05/16 02:42:02;;;;;;;6.80;3.15;;;;;;;18.46;47.18;100076.34;4441070;32;33022;-90
2022/05/16 02:44:30;;;;;;;7.53;3.08;;;;;;;18.47;47.38;100077.19;4440961;32;34300;-90
2022/05/16 02:46:59;;;;;;;6.85;3.37;;;;;;;18.44;47.67;100072.97;4440449;32;33200;-90
2022/05/16 02:49:27;;;;;;;5.87;3.08;;;;;;;18.44;47.68;100070.19;4441050;32;33733;-90
2022/05/16 02:51:55;;;;;;;8.07;3.12;;;;;;;18.39;47.76;100064.53;4440804;32;32938;-90
2022/05/16 02:54:25;;;;;;;7.12;3.30;;;;;;;18.59;46.98;100070.47;4427799;32;32430;-90
2022/05/16 02:56:53;;;;;;;6.12;2.90;;;;;;;18.40;46.61;100066.22;4440604;32;31568;-89
2022/05/16 02:59:23;;;;;;;8.60;3.30;;;;;;;18.40;46.87;100066.22;4427814;32;32767;-90
2022/05/16 03:01:53;;;;;;;7.62;3.20;;;;;;;18.34;46.68;100070.84;4427930;32;33797;-90
2022/05/16 03:04:23;;;;;;;7.90;2.87;;;;;;;18.37;46.58;100056.47;4440478;32;34291;-90
2022/05/16 03:06:51;;;;;;;7.05;2.90;;;;;;;18.14;47.02;100061.31;4440450;32;32717;-90
2022/05/16 03:09:19;;;;;;;7.95;3.20;;;;;;;18.31;46.44;100065.78;4440732;32;34078;-91
2022/05/16 03:11:48;;;;;;;7.40;3.33;;;;;;;18.27;46.66;100066.53;4440580;32;35773;-91
2022/05/16 03:14:15;;;;;;;6.55;3.00;;;;;;;18.15;47.11;100072.19;4427768;32;33280;-90
2022/05/16 03:16:46;;;;;;;8.73;3.55;;;;;;;18.04;47.38;100062.81;4427565;32;31736;-90
2022/05/16 03:19:15;;;;;;;6.95;2.87;;;;;;;18.13;47.24;100062.41;4427768;32;32187;-91
2022/05/16 03:21:42;;;;;;;7.57;3.17;;;;;;;18.16;47.87;100067.47;4415249;32;32914;-90
2022/05/16 03:24:10;;;;;;;10.57;3.80;;;;;;;18.16;48.01;100065.53;4427853;32;32654;-90
2022/05/16 03:26:39;;;;;;;6.62;3.65;;;;;;;18.12;48.40;100060.72;4427848;32;33483;-90
2022/05/16 03:29:07;;;;;;;9.45;3.35;;;;;;;18.22;48.31;100064.50;4414906;32;33361;-90
2022/05/16 03:31:34;;;;;;;10.13;3.55;;;;;;;18.16;48.35;100064.69;4428164;32;34514;-90
2022/05/16 03:34:03;;;;;;;7.12;3.20;;;;;;;18.01;48.73;100063.31;4415120;32;33024;-91
2022/05/16 03:36:31;;;;;;;8.18;4.00;;;;;;;18.00;48.76;100063.56;4427744;32;33514;-91
2022/05/16 03:41:45;;;;;;;7.22;3.90;;;;;;;18.05;49.40;100069.22;4418820;32;32993;-91
2022/05/16 03:44:13;;;;;;;7.87;4.00;;;;;;;18.19;49.37;100069.75;4427698;32;32484;-91
2022/05/16 03:46:41;;;;;;;8.40;3.67;;;;;;;18.14;49.67;100066.88;4427668;32;33130;-90
2022/05/16 03:49:10;;;;;;;8.20;3.67;;;;;;;18.08;50.14;100063.16;4415037;32;32152;-90
2022/05/16 03:51:38;;;;;;;10.80;3.70;;;;;;;18.24;49.84;100069.81;4414884;32;32679;-91
2022/05/16 03:54:05;;;;;;;7.90;3.55;;;;;;;18.15;50.12;100065.78;4427172;32;33887;-90
2022/05/16 03:56:34;;;;;;;9.82;3.92;;;;;;;18.19;49.54;100075.31;4414798;32;31633;-91
2022/05/16 03:59:06;;;;;;;10.05;3.47;;;;;;;18.15;49.48;100069.41;4413513;32;33221;-89
2022/05/16 04:01:37;;;;;;;7.40;3.42;;;;;;;18.40;48.28;100067.06;4427479;32;33791;-90
2022/05/16 04:04:16;;;;;;;7.65;3.20;;;;;;;18.34;48.54;100070.84;4427851;32;33445;-90
2022/05/16 04:06:48;;;;;;;5.82;3.00;;;;;;;18.39;48.72;100084.84;4415364;32;31911;-90
2022/05/16 04:09:20;;;;;;;10.57;3.72;;;;;;;18.45;48.58;100074.66;4427441;32;34581;-90
2022/05/16 04:11:53;;;;;;;10.10;3.90;;;;;;;18.61;47.58;100073.88;4426389;32;34312;-90
2022/05/16 04:14:21;;;;;;;8.82;3.28;;;;;;;18.50;47.12;100077.53;4439393;32;33668;-90
2022/05/16 04:16:49;;;;;;;9.27;3.78;;;;;;;18.65;47.49;100080.59;4426947;32;32055;-90
2022/05/16 04:19:17;;;;;;;6.68;3.40;;;;;;;18.55;47.32;100091.50;4438268;32;33715;-89
2022/05/16 04:21:45;;;;;;;8.57;3.87;;;;;;;18.73;47.48;100090.47;4439789;32;34438;-86
2022/05/16 04:24:18;;;;;;;14.30;3.37;;;;;;;18.87;46.63;100094.56;4439640;32;33712;-91
2022/05/16 04:26:46;;;;;;;8.57;3.03;;;;;;;18.95;46.21;100099.69;4440029;32;34215;-89
2022/05/16 04:29:13;;;;;;;8.77;3.05;;;;;;;18.98;46.40;100092.78;4431793;32;32920;-88
2022/05/16 04:31:43;;;;;;;11.63;3.35;;;;;;;19.07;46.48;100088.47;4443841;32;34493;-82
2022/05/16 04:34:11;;;;;;;9.70;3.65;;;;;;;19.08;46.77;100092.94;4447265;32;34788;-88
2022/05/16 04:36:39;;;;;;;6.18;3.05;;;;;;;19.09;47.32;100091.84;4440455;32;32339;-86
2022/05/16 04:39:10;;;;;;;8.60;2.95;;;;;;;19.13;46.65;100093.03;4426672;32;32318;-85
2022/05/16 04:44:24;;;;;;;8.55;3.28;;;;;;;19.24;45.42;100094.03;4451880;32;33326;-85
2022/05/16 04:46:53;;;;;;;9.70;3.33;;;;;;;19.18;45.36;100097.81;4426305;32;32022;-86
2022/05/16 04:49:23;;;;;;;8.30;2.70;;;;;;;19.26;45.59;100092.66;4439396;32;33132;-86
2022/05/16 04:51:56;;;;;;;6.68;3.00;;;;;;;19.34;45.74;100092.22;4439299;32;34302;-86
2022/05/16 04:54:25;;;;;;;6.53;2.78;;;;;;;19.41;44.82;100094.84;4439227;32;33439;-85
2022/05/16 04:56:57;;;;;;;6.07;2.45;;;;;;;19.51;44.74;100089.41;4439449;32;33392;-84
2022/05/16 04:59:25;;;;;;;5.20;2.58;;;;;;;19.52;44.27;100096.66;4451989;32;33689;-93
2022/05/16 05:01:52;;;;;;;8.80;2.65;;;;;;;19.52;43.72;100093.88;4439511;32;34933;-86
2022/05/16 05:04:23;;;;;;;5.87;2.58;;;;;;;19.67;45.08;100099.66;4439148;32;33493;-83
2022/05/16 05:06:55;;;;;;;7.60;2.60;;;;;;;19.84;44.25;100105.16;4426555;32;32950;-84
2022/05/16 05:15:30;;;;;;;6.32;2.17;;;;;;;19.93;40.95;100108.34;4428597;32;34839;-83
2022/05/16 05:18:00;;;;;;;6.70;2.37;;;;;;;19.94;41.31;100096.09;4444035;32;32980;-84
2022/05/16 05:20:35;;;;;;;9.48;2.40;;;;;;;20.09;40.44;100101.84;4443810;32;32277;-85
2022/05/16 05:26:15;;;;;;;7.15;2.42;;;;;;;19.94;40.55;100104.44;4448734;32;32689;-83
2022/05/16 05:28:53;;;;;;;9.23;4.15;;;;;;;20.21;40.33;100105.28;4439294;32;33178;-83
2022/05/16 05:31:25;;;;;;;8.73;2.78;;;;;;;20.31;40.35;100110.12;4439046;32;32884;-86
2022/05/16 05:33:56;;;;;;;9.77;3.53;;;;;;;20.15;38.54;100111.09;4438660;32;32993;-88
2022/05/16 05:36:31;;;;;;;8.02;2.90;;;;;;;20.13;39.56;100100.22;4438104;32;33417;-86
2022/05/16 05:39:01;;;;;;;6.15;2.53;;;;;;;20.34;39.07;100110.47;4426564;32;31834;-86
2022/05/16 05:41:28;;;;;;;7.68;3.42;;;;;;;20.31;39.07;100115.72;4439248;32;33385;-86
2022/05/16 05:44:28;;;;;;;7.62;2.70;;;;;;;20.36;38.68;100108.25;4439609;32;34307;-84
2022/05/16 05:47:26;;;;;;;7.87;2.90;;;;;;;20.40;38.34;100114.16;4439777;32;32114;-86
2022/05/16 05:50:06;;;;;;;8.52;3.03;;;;;;;20.47;37.63;100109.22;4441509;32;33245;-84
2022/05/16 05:52:36;;;;;;;9.05;2.78;;;;;;;20.71;38.50;100115.31;4454075;32;33867;-84
2022/05/16 05:55:05;;;;;;;5.85;2.58;;;;;;;20.55;37.31;100114.34;4441112;32;34329;-83
2022/05/16 05:57:38;;;;;;;9.10;2.42;;;;;;;20.82;37.22;100110.63;4441606;32;33997;-82
2022/05/16 06:00:11;;;;;;;5.97;2.28;;;;;;;20.96;37.72;100112.72;4441594;32;33633;-86
2022/05/16 06:02:40;;;;;;;11.82;6.70;;;;;;;21.07;35.66;100113.62;4452918;32;34544;-83
2022/05/16 06:05:13;;;;;;;5.35;2.30;;;;;;;20.91;36.53;100123.00;4439085;32;34884;-82
2022/05/16 06:07:42;;;;;;;9.98;2.70;;;;;;;21.24;36.10;100122.72;4453201;32;33617;-83
2022/05/16 06:10:12;;;;;;;6.30;2.28;;;;;;;21.31;36.59;100122.50;4439317;32;32965;-83
2022/05/16 06:12:47;;;;;;;7.22;2.40;;;;;;;21.16;36.53;100125.16;4454407;32;33621;-84
2022/05/16 06:15:16;;;;;;;7.53;2.10;;;;;;;21.31;35.45;100125.28;4440235;32;33707;-86
2022/05/16 06:17:47;;;;;;;6.65;2.25;;;;;;;21.30;35.70;100124.47;4440536;32;33486;-84
2022/05/16 06:20:18;;;;;;;6.85;2.05;;;;;;;21.53;35.31;100127.91;4428392;32;32544;-87
2022/05/16 06:22:50;;;;;;;6.32;2.05;;;;;;;21.50;35.66;100122.88;4428052;32;33216;-84
2022/05/16 06:25:32;;;;;;;7.15;2.15;;;;;;;21.42;34.41;100120.62;4441356;32;34904;-84
2022/05/16 06:28:14;;;;;;;5.78;1.83;;;;;;;21.50;33.79;100118.13;4442274;32;34735;-85
2022/05/16 06:30:47;;;;;;;4.70;1.52;;;;;;;21.78;34.46;100119.69;4441481;32;33607;-84
2022/05/16 06:33:22;;;;;;;8.23;2.12;;;;;;;21.84;34.29;100117.75;4453847;32;33646;-86
2022/05/16 06:36:00;;;;;;;5.22;1.80;;;;;;;21.96;34.71;100116.41;4455185;32;35152;-85
2022/05/16 06:38:33;;;;;;;7.65;2.03;;;;;;;22.13;33.96;100121.78;4454154;32;33937;-86
2022/05/16 06:41:07;;;;;;;5.40;1.67;;;;;;;21.92;34.01;100112.47;4441074;32;33578;-86
2022/05/16 06:43:41;;;;;;;6.45;2.00;;;;;;;22.09;33.66;100115.09;4441219;32;33896;-85
2022/05/16 06:46:11;;;;;;;9.93;2.60;;;;;;;21.91;34.08;100110.81;4440962;32;32869;-85
2022/05/16 06:48:54;;;;;;;5.10;1.95;;;;;;;21.88;33.85;100102.97;4441301;32;33677;-86
2022/05/16 06:51:23;;;;;;;8.70;2.33;;;;;;;22.27;33.94;100110.94;4441661;32;33565;-86
2022/05/16 06:54:01;;;;;;;5.65;2.20;;;;;;;21.67;34.21;100118.78;4429905;32;32307;-87
2022/05/16 06:56:41;;;;;;;6.18;2.40;;;;;;;22.17;34.26;100113.69;4440497;32;32956;-87
2022/05/16 06:59:18;;;;;;;6.22;2.10;;;;;;;22.39;34.58;100117.12;4441010;32;32377;-84
2022/05/16 07:01:53;;;;;;;7.72;2.10;;;;;;;22.42;33.88;100118.53;4440545;32;32053;-85
2022/05/16 07:04:24;;;;;;;5.12;2.17;;;;;;;22.51;33.85;100117.69;4440771;32;33054;-86
2022/05/16 07:06:55;;;;;;;10.35;2.00;;;;;;;22.70;33.73;100117.16;4441135;32;35164;-84
2022/05/16 07:09:39;;;;;;;6.70;2.50;;;;;;;22.79;33.32;100113.53;4453509;32;34878;-87
2022/05/16 07:12:13;;;;;;;10.10;2.60;;;;;;;22.76;33.44;100118.81;4441730;32;33650;-85
2022/05/16 07:14:48;;;;;;;5.75;2.10;;;;;;;22.58;33.23;100118.28;4453361;32;33363;-86
2022/05/16 07:17:27;;;;;;;7.75;2.80;;;;;;;22.78;33.45;100119.38;4441437;32;35394;-85
2022/05/16 07:20:00;;;;;;;7.85;2.00;;;;;;;23.07;33.25;100120.53;4440797;32;32647;-84
2022/05/16 07:22:32;;;;;;;6.35;2.10;;;;;;;23.26;33.30;100118.84;4421431;32;32155;-85
2022/05/16 07:25:06;;;;;;;7.20;2.35;;;;;;;23.10;32.79;100117.19;4412881;32;34100;-86
2022/05/16 07:30:45;;;;;;;5.85;2.00;;;;;;;23.32;32.59;100122.47;4398969;32;33449;-86
2022/05/16 07:33:18;;;;;;;7.47;2.03;;;;;;;23.37;33.25;100118.84;4413189;32;34257;-84
2022/05/16 07:35:55;;;;;;;14.05;2.67;;;;;;;23.29;32.51;100118.28;4413047;32;32305;-83
2022/05/16 07:38:25;;;;;;;7.22;2.55;;;;;;;23.31;33.05;100116.03;4412421;32;32957;-84
2022/05/16 07:40:58;;;;;;;6.75;2.30;;;;;;;23.50;32.36;100118.22;4410835;32;32580;-84
2022/05/16 07:43:28;;;;;;;10.48;2.20;;;;;;;23.48;31.97;100120.47;4413092;32;33477;-83
2022/05/16 07:46:03;;;;;;;10.23;4.53;;;;;;;23.51;32.02;100111.50;4412296;32;33082;-83
2022/05/16 07:48:35;;;;;;;;;;;;;;;23.58;31.80;100121.31;4425878;32;34304;-88
2022/05/16 07:51:06;;;;;;;5.68;2.17;;;;;;;23.90;30.73;100123.75;4399890;32;32507;-87
2022/05/16 07:53:34;;;;;;;8.30;2.10;;;;;;;24.08;29.92;100122.22;4425065;32;34226;-85
2022/05/16 07:56:11;;;;;;;9.18;2.22;;;;;;;24.01;29.63;100121.72;4412526;32;33869;-84
2022/05/16 07:58:44;;;;;;;4.97;2.17;;;;;;;24.21;30.14;100123.56;4412192;32;33064;-83
2022/05/16 08:01:16;;;;;;;5.43;1.87;;;;;;;24.37;29.54;100127.19;4412370;32;33972;-84
2022/05/16 08:03:56;;;;;;;5.00;1.92;;;;;;;24.46;28.70;100126.28;4399512;32;33329;-85
2022/05/16 08:06:28;;;;;;;6.62;2.12;;;;;;;24.48;28.96;100124.03;4412769;32;33974;-85
2022/05/16 08:12:10;;;;;;;7.80;1.90;;;;;;;24.61;28.82;100125.34;4414043;32;33396;-83
2022/05/16 08:14:43;;;;;;;4.78;1.90;;;;;;;24.74;29.31;100119.03;4412674;32;34392;-85
2022/05/16 08:17:14;;;;;;;5.25;1.95;;;;;;;24.84;29.52;100126.56;4432730;32;33757;-84
2022/05/16 08:19:49;;;;;;;4.60;1.85;;;;;;;25.05;27.73;100125.28;4435662;32;34542;-86
2022/05/16 08:22:20;;;;;;;6.32;2.08;;;;;;;25.00;27.72;100130.94;4435733;32;34119;-86
2022/05/16 08:24:53;;;;;;;6.18;2.08;;;;;;;25.12;27.55;100122.16;4411134;32;31997;-86
2022/05/16 08:27:27;;;;;;;5.25;1.87;;;;;;;25.18;27.36;100121.81;4424143;32;33686;-85
2022/05/16 08:29:59;;;;;;;5.80;2.20;;;;;;;25.28;28.11;100127.34;4422613;32;33977;-85
2022/05/16 08:32:30;;;;;;;7.72;2.58;;;;;;;25.26;28.62;100118.37;4422725;32;32502;-85
2022/05/16 08:35:01;;;;;;;7.80;2.25;;;;;;;25.33;27.16;100117.19;4435795;32;34362;-83
2022/05/16 08:40:20;;;;;;;7.10;2.03;;;;;;;25.77;27.88;100117.81;4425114;32;32619;-84
2022/05/16 08:43:12;;;;;;;8.07;2.42;;;;;;;25.44;27.30;100118.72;4425318;32;34043;-82
2022/05/16 08:45:52;;;;;;;6.25;1.90;;;;;;;25.53;27.47;100123.41;4425408;32;33376;-82
2022/05/16 08:48:26;;;;;;;9.45;4.40;;;;;;;25.68;27.71;100122.44;4425481;32;32536;-83
2022/05/16 08:51:55;;;;;;;7.90;2.42;;;;;;;25.75;27.78;100114.47;4425537;32;34370;-82
2022/05/16 08:54:42;;;;;;;7.82;2.40;;;;;;;26.03;26.92;100114.69;4438090;32;33541;-83
2022/05/16 08:57:20;;;;;;;8.52;2.20;;;;;;;26.09;27.17;100119.94;4425710;32;33416;-83
2022/05/16 08:59:55;;;;;;;4.60;2.10;;;;;;;26.22;26.44;100119.19;4425391;32;32092;-82
2022/05/16 09:02:24;;;;;;;7.20;1.90;;;;;;;26.41;26.20;100122.06;4425254;32;32801;-82
2022/05/16 09:05:15;;;;;;;6.60;2.00;;;;;;;26.49;26.41;100118.56;4412713;32;32247;-82
2022/05/16 09:07:50;;;;;;;6.43;2.28;;;;;;;26.46;26.11;100123.97;4438092;32;33215;-81
2022/05/16 09:10:22;;;;;;;5.57;2.00;;;;;;;26.41;26.31;100122.06;4438005;32;33899;-82
2022/05/16 09:13:35;;;;;;;7.40;2.20;;;;;;;26.43;27.44;100116.13;4425437;32;34430;-82
2022/05/16 09:16:32;;;;;;;6.65;2.40;;;;;;;26.61;27.08;100125.72;4418782;32;146166;-82
2022/05/16 09:19:12;;;;;;;6.05;2.05;;;;;;;26.72;26.38;100115.97;4421475;32;33058;-82
2022/05/16 09:22:11;;;;;;;19.00;9.75;;;;;;;26.73;26.11;100109.19;4426002;32;32272;-82
2022/05/16 09:24:49;;;;;;;13.55;6.45;;;;;;;26.76;26.94;100112.22;4426230;32;34632;-82
2022/05/16 09:30:27;;;;;;;8.23;2.62;;;;;;;27.17;26.10;100101.16;4428002;32;31959;-82
2022/05/16 09:33:01;;;;;;;10.45;2.50;;;;;;;27.23;26.15;100099.91;4425850;32;33684;-82
2022/05/16 09:35:42;;;;;;;5.18;2.37;;;;;;;27.48;26.33;100090.12;4425916;32;34085;-82
2022/05/16 09:38:12;;;;;;;7.90;2.80;;;;;;;27.44;26.00;100085.41;4425845;32;32543;-82
2022/05/16 09:40:53;;;;;;;10.00;2.25;;;;;;;27.32;25.41;100093.53;4425935;32;31957;-82
2022/05/16 09:43:23;;;;;;;7.78;2.65;;;;;;;27.66;25.77;100085.56;4413093;32;31736;-82
2022/05/16 09:45:58;;;;;;;9.50;3.25;;;;;;;28.06;25.18;100078.22;4426042;32;33716;-82
2022/05/16 09:48:27;;;;;;;8.10;2.45;;;;;;;28.34;25.63;100076.22;4425848;32;34661;-82
2022/05/16 09:51:15;;;;;;;8.10;2.58;;;;;;;28.42;24.46;100074.63;4425889;32;33481;-83
2022/05/16 09:53:43;;;;;;;6.28;2.42;;;;;;;28.53;24.09;100071.25;4439665;32;33970;-83
2022/05/16 09:56:33;;;;;;;12.00;2.83;;;;;;;28.78;24.93;100078.25;4417643;32;33058;-83
2022/05/16 09:59:05;;;;;;;9.90;2.53;;;;;;;29.01;23.94;100076.28;4425754;32;32435;-82
2022/05/16 10:01:38;;;;;;;8.38;2.42;;;;;;;29.21;23.90;100062.78;4426054;32;34366;-83
2022/05/16 10:04:15;;;;;;;4.75;2.22;;;;;;;29.30;24.53;100063.63;4438469;32;34073;-83
2022/05/16 10:06:59;;;;;;;8.05;2.40;;;;;;;29.41;24.46;100065.03;4413336;32;32913;-87
2022/05/16 10:09:36;;;;;;;7.15;2.42;;;;;;;29.47;23.82;100060.94;4425768;32;34007;-82
2022/05/16 10:12:07;;;;;;;7.28;2.78;;;;;;;29.70;22.82;100062.53;4438088;32;32798;-82
2022/05/16 10:14:42;;;;;;;11.75;4.93;;;;;;;29.93;23.02;100051.09;4438360;32;33594;-87
2022/05/16 10:17:43;;;;;;;27.75;6.00;;;;;;;29.78;22.99;100060.87;4423633;32;33799;-86
2022/05/16 10:20:21;;;;;;;8.00;2.62;;;;;;;29.87;23.57;100046.78;4424399;32;32553;-87
2022/05/16 10:22:55;;;;;;;9.18;3.65;;;;;;;29.71;23.52;100054.88;4438096;32;33522;-85
2022/05/16 10:25:38;;;;;;;12.05;7.20;;;;;;;29.64;23.10;100055.34;4426281;32;33202;-82
2022/05/16 10:28:11;;;;;;;8.07;2.67;;;;;;;29.63;22.92;100053.69;4425525;32;34564;-84
2022/05/16 10:33:29;;;;;;;5.90;2.10;;;;;;;29.68;23.71;100059.19;4427257;32;33235;-85
2022/05/16 10:36:08;;;;;;;6.75;2.47;;;;;;;29.63;23.67;100048.03;4425400;32;32289;-84
2022/05/16 10:38:49;;;;;;;7.55;2.05;;;;;;;29.44;23.96;100056.75;4412799;32;33068;-86
2022/05/16 10:41:22;;;;;;;7.47;2.45;;;;;;;29.20;23.09;100056.28;4413148;32;32533;-86
2022/05/16 10:44:31;;;;;;;5.53;2.15;;;;;;;29.13;24.06;100059.56;4425427;32;34119;-86
2022/05/16 10:47:26;;;;;;;9.10;2.90;;;;;;;28.92;23.90;100054.78;4425952;32;32411;-86
2022/05/16 10:50:02;;;;;;;11.50;3.03;;;;;;;29.11;23.94;100047.75;4412827;32;32880;-84
2022/05/16 10:52:53;;;;;;;11.20;2.90;;;;;;;29.49;24.60;100047.28;4438138;32;34618;-85
2022/05/16 10:55:26;;;;;;;8.73;2.78;;;;;;;29.88;23.34;100045.59;4425641;32;33282;-86
2022/05/16 10:58:09;;;;;;;9.90;2.60;;;;;;;29.95;22.46;100038.28;4425412;32;32414;-84
2022/05/16 11:00:52;;;;;;;8.82;2.72;;;;;;;30.20;22.48;100041.50;4425604;32;34167;-89
2022/05/16 11:04:15;;;;;;;9.75;3.67;;;;;;;30.65;22.02;100033.53;4428306;32;32535;-85
2022/05/16 11:08:15;;;;;;;5.80;2.90;;;;;;;30.67;21.62;100032.03;4428571;32;33053;-86
2022/05/16 11:15:40;;;;;;;9.15;4.07;;;;;;;30.90;21.41;100018.50;4394364;32;34645;-86
2022/05/16 11:19:07;;;;;;;9.20;3.70;;;;;;;31.44;21.07;100022.53;4381131;32;32037;-86
2022/05/16 11:22:18;;;;;;;11.65;3.33;;;;;;;31.38;20.76;100023.06;4439837;32;32027;-86
2022/05/16 11:25:30;;;;;;;7.62;2.28;;;;;;;31.66;20.84;100014.94;4426721;32;33396;-86
2022/05/16 11:28:33;;;;;;;5.50;2.12;;;;;;;31.69;20.46;100011.44;4425134;32;33885;-86
2022/05/16 11:31:07;;;;;;;7.70;2.70;;;;;;;31.73;20.07;100013.25;4425107;32;32568;-87
2022/05/16 11:33:44;;;;;;;8.95;3.00;;;;;;;32.00;20.99;100008.22;4437857;32;32737;-92
2022/05/16 11:36:32;;;;;;;6.65;2.50;;;;;;;32.17;20.50;99999.59;4425195;32;32336;-89
2022/05/16 11:39:03;;;;;;;16.73;8.05;;;;;;;32.09;20.42;99997.62;4425163;32;33919;-86
2022/05/16 11:42:09;;;;;;;8.07;3.15;;;;;;;32.24;22.92;99999.88;4437806;32;34830;-89
2022/05/16 11:45:14;;;;;;;7.90;2.77;;;;;;;32.46;20.01;99989.34;4425000;32;31514;-86
2022/05/16 11:47:57;;;;;;;6.60;2.67;;;;;;;32.81;21.16;99985.00;4425089;32;33364;-86
2022/05/16 11:50:54;;;;;;;7.65;3.05;;;;;;;32.86;20.75;99981.94;4427100;32;32898;-85
2022/05/16 11:53:42;;;;;;;10.20;3.22;;;;;;;33.06;20.90;99971.69;4447134;32;34334;-86
2022/05/16 12:02:28;;;;;;;15.52;3.10;;;;;;;33.35;20.21;99970.66;4396857;32;33030;-85
2022/05/16 12:05:08;;;;;;;5.05;2.62;;;;;;;33.49;20.92;99976.00;4380495;32;31719;-85
2022/05/16 12:07:46;;;;;;;6.65;3.00;;;;;;;33.56;19.99;99964.88;4417971;32;34323;-85
2022/05/16 12:10:24;;;;;;;7.00;2.67;;;;;;;33.78;19.90;99958.69;4424702;32;33762;-86
2022/05/16 12:13:23;;;;;;;6.12;2.78;;;;;;;33.82;19.66;99964.50;4424821;32;34480;-85
2022/05/16 12:16:17;;;;;;;7.18;2.90;;;;;;;33.85;20.23;99955.25;4420818;32;33731;-86
2022/05/16 12:18:49;;;;;;;7.65;2.70;;;;;;;34.05;19.51;99951.41;4437106;32;33617;-85
2022/05/16 12:21:17;;;;;;;7.55;3.00;;;;;;;33.77;19.37;99948.50;4426375;32;33217;-85
2022/05/16 12:23:49;;;;;;;7.43;3.20;;;;;;;33.59;19.89;99949.94;4426272;32;32830;-85
2022/05/16 12:26:26;;;;;;;6.30;2.72;;;;;;;33.50;19.38;99950.03;4426043;32;34188;-88
2022/05/16 12:29:09;;;;;;;5.60;2.15;;;;;;;33.40;19.62;99947.69;4425529;32;32123;-84
2022/05/16 12:31:50;;;;;;;6.82;3.90;;;;;;;33.20;19.67;99940.03;4425650;32;32520;-84
2022/05/16 12:34:31;;;;;;;7.62;2.90;;;;;;;33.11;19.51;99936.50;4425875;32;32650;-85
2022/05/16 12:37:01;;;;;;;7.03;3.03;;;;;;;33.18;19.75;99936.72;4425597;32;32520;-86
2022/05/16 12:39:57;;;;;;;9.88;3.45;;;;;;;33.12;19.93;99921.09;4433401;32;32447;-85
2022/05/16 12:42:25;;;;;;;;;;;;;;;33.21;19.57;99919.78;4443852;32;33304;-85
2022/05/16 12:45:02;;;;;;;7.80;3.70;;;;;;;33.30;20.42;99911.97;4453845;32;35441;-85
2022/05/16 12:48:59;;;;;;;10.40;3.70;;;;;;;33.30;19.87;99909.13;4442262;32;33561;-85
2022/05/16 12:52:13;;;;;;;8.10;2.60;;;;;;;33.36;20.39;99904.03;4372066;32;32074;-85
2022/05/16 12:55:32;;;;;;;6.18;2.70;;;;;;;33.30;19.27;99894.91;4406281;32;33809;-83